Time;durP1;ratioP1;P1;durP2;ratioP2;P2;SDS_P1;SDS_P2;PMS_P1;PMS_P2;Temp;Humidity;BMP_temperature;BMP_pressure;BME280_temperature;BME280_humidity;BME280_pressure;Samples;Min_cycle;Max_cycle;Signal;HPM_P1;HPM_P2
2022/06/29 00:00:49;;;;;;;;;;;19.10;99.90;;;;;;5005304;28;19909;-78
2022/06/29 00:03:14;;;;;;;;;;;19.00;99.90;;;;;;5008371;28;19916;-78
2022/06/29 00:05:40;;;;;;;;;;;19.00;99.90;;;;;;5005425;28;19909;-79
2022/06/29 00:08:05;;;;;;;;;;;19.00;99.90;;;;;;5005466;28;19915;-77
2022/06/29 00:10:31;;;;;;;;;;;19.10;99.90;;;;;;5005213;28;19910;-77
2022/06/29 00:12:56;;;;;;;;;;;19.20;99.90;;;;;;5007644;28;20024;-77
2022/06/29 00:15:22;;;;;;;;;;;19.10;99.90;;;;;;5008291;28;19964;-77
2022/06/29 00:17:48;;;;;;;;;;;19.20;99.90;;;;;;5010831;28;19910;-77
2022/06/29 00:20:14;;;;;;;;;;;19.20;99.90;;;;;;5007862;28;20000;-77
2022/06/29 00:22:40;;;;;;;;;;;19.20;99.90;;;;;;5009171;28;20012;-77
2022/06/29 00:25:06;;;;;;;;;;;19.30;99.90;;;;;;5006951;28;20265;-77
2022/06/29 00:27:32;;;;;;;;;;;19.20;99.90;;;;;;5007781;28;19913;-77
2022/06/29 00:29:58;;;;;;;;;;;19.20;99.90;;;;;;5006196;28;19910;-77
2022/06/29 00:32:23;;;;;;;;;;;19.10;99.90;;;;;;5009017;28;20783;-77
2022/06/29 00:34:48;;;;;;;;;;;18.90;99.90;;;;;;5009342;28;19928;-77
2022/06/29 00:37:14;;;;;;;;;;;18.80;99.90;;;;;;5006627;28;19909;-78
2022/06/29 00:39:40;;;;;;;;;;;18.70;99.90;;;;;;5004980;28;19916;-77
2022/06/29 00:42:05;;;;;;;;;;;18.80;99.90;;;;;;5006794;28;19909;-77
2022/06/29 00:44:31;;;;;;;;;;;18.80;99.90;;;;;;5007153;28;20452;-76
2022/06/29 00:46:58;;;;;;;;;;;18.90;99.90;;;;;;5007302;28;20280;-78
2022/06/29 00:49:24;;;;;;;;;;;18.90;99.90;;;;;;5003879;28;19910;-77
2022/06/29 00:51:50;;;;;;;;;;;18.90;99.90;;;;;;5007126;28;20311;-77
2022/06/29 00:54:20;;;;;;;;;;;18.90;99.90;;;;;;5004152;28;19940;-77
2022/06/29 00:56:47;;;;;;;;;;;18.90;99.90;;;;;;5006653;28;20402;-77
2022/06/29 00:59:15;;;;;;;;;;;18.90;99.90;;;;;;5003805;28;20007;-77
2022/06/29 01:01:41;;;;;;;;;;;18.90;99.90;;;;;;5001891;28;19958;-77
2022/06/29 01:04:07;;;;;;;;;;;18.80;99.90;;;;;;5006298;28;20288;-77
2022/06/29 01:06:32;;;;;;;;;;;18.80;99.90;;;;;;5003686;28;20364;-77
2022/06/29 01:08:58;;;;;;;;;;;18.80;99.90;;;;;;5003455;28;19914;-77
2022/06/29 01:11:23;;;;;;;;;;;18.80;99.90;;;;;;5005798;28;19909;-77
2022/06/29 01:13:48;;;;;;;;;;;18.80;99.90;;;;;;5009413;28;19909;-77
2022/06/29 01:16:14;;;;;;;;;;;18.70;99.90;;;;;;5011019;28;20450;-77
2022/06/29 01:18:39;;;;;;;;;;;18.70;99.90;;;;;;5002965;28;19913;-77
2022/06/29 01:21:05;;;;;;;;;;;18.60;99.90;;;;;;5011137;28;19953;-77
2022/06/29 01:23:32;;;;;;;;;;;18.60;99.90;;;;;;5012558;28;19925;-77
2022/06/29 01:26:02;;;;;;;;;;;18.60;99.90;;;;;;5011762;28;19915;-77
2022/06/29 01:28:27;;;;;;;;;;;18.60;99.90;;;;;;5011598;28;19913;-77
2022/06/29 01:30:53;;;;;;;;;;;18.60;99.90;;;;;;5010802;28;19964;-77
2022/06/29 01:33:18;;;;;;;;;;;18.50;99.90;;;;;;5010680;28;20256;-77
2022/06/29 01:35:44;;;;;;;;;;;18.50;99.90;;;;;;5010897;28;19913;-77
2022/06/29 01:38:09;;;;;;;;;;;18.50;99.90;;;;;;5010547;28;20299;-77
2022/06/29 01:40:36;;;;;;;;;;;18.40;99.90;;;;;;5010438;28;19909;-77
2022/06/29 01:43:01;;;;;;;;;;;18.40;99.90;;;;;;5013576;28;19935;-77
2022/06/29 01:45:27;;;;;;;;;;;18.30;99.90;;;;;;5009841;28;20083;-77
2022/06/29 01:47:52;;;;;;;;;;;18.30;99.90;;;;;;5009614;28;19948;-76
2022/06/29 01:50:17;;;;;;;;;;;18.30;99.90;;;;;;5008884;28;20034;-77
2022/06/29 01:52:43;;;;;;;;;;;18.20;99.90;;;;;;5009824;28;20066;-77
2022/06/29 01:55:08;;;;;;;;;;;18.20;99.90;;;;;;5011140;28;20384;-76
2022/06/29 01:57:34;;;;;;;;;;;18.20;99.90;;;;;;5008321;28;19925;-77
2022/06/29 01:59:59;;;;;;;;;;;18.10;99.90;;;;;;5014463;28;19920;-77
2022/06/29 02:02:25;;;;;;;;;;;18.10;99.90;;;;;;5004395;28;19909;-77
2022/06/29 02:04:50;;;;;;;;;;;18.10;99.90;;;;;;5013800;28;19909;-77
2022/06/29 02:07:16;;;;;;;;;;;18.10;99.90;;;;;;5008543;28;19944;-77
2022/06/29 02:09:41;;;;;;;;;;;18.10;99.90;;;;;;5009298;28;20036;-76
2022/06/29 02:12:07;;;;;;;;;;;18.10;99.90;;;;;;5008458;28;20003;-77
2022/06/29 02:14:32;;;;;;;;;;;18.10;99.90;;;;;;5008488;28;19917;-76
2022/06/29 02:16:58;;;;;;;;;;;18.10;99.90;;;;;;5010513;28;20354;-77
2022/06/29 02:19:23;;;;;;;;;;;18.10;99.90;;;;;;5008796;28;19956;-76
2022/06/29 02:21:48;;;;;;;;;;;18.10;99.90;;;;;;5011668;28;19909;-77
2022/06/29 02:24:14;;;;;;;;;;;18.10;99.90;;;;;;5005116;28;20365;-76
2022/06/29 02:26:39;;;;;;;;;;;18.10;99.90;;;;;;5007453;28;19913;-76
2022/06/29 02:29:05;;;;;;;;;;;18.10;99.90;;;;;;5008549;28;19996;-76
2022/06/29 02:36:59;;;;;;;;;;;18.00;99.90;;;;;;5010360;28;19991;-76
2022/06/29 02:39:24;;;;;;;;;;;17.90;99.90;;;;;;5008507;28;19949;-76
2022/06/29 02:41:49;;;;;;;;;;;17.90;99.90;;;;;;5010366;28;19923;-76
2022/06/29 02:44:15;;;;;;;;;;;17.90;99.90;;;;;;5007463;28;19918;-76
2022/06/29 02:46:40;;;;;;;;;;;17.90;99.90;;;;;;5008037;28;19916;-77
2022/06/29 02:49:06;;;;;;;;;;;17.90;99.90;;;;;;5013128;28;19910;-77
2022/06/29 02:51:31;;;;;;;;;;;17.90;99.90;;;;;;5001178;28;19917;-77
2022/06/29 02:53:57;;;;;;;;;;;17.90;99.90;;;;;;5008557;28;19921;-77
2022/06/29 02:56:22;;;;;;;;;;;17.80;99.90;;;;;;5010102;28;19916;-77
2022/06/29 02:58:47;;;;;;;;;;;17.80;99.90;;;;;;5010266;28;19916;-77
2022/06/29 03:01:13;;;;;;;;;;;17.70;99.90;;;;;;5008774;28;19917;-77
2022/06/29 03:03:38;;;;;;;;;;;17.60;99.90;;;;;;5009685;28;20388;-77
2022/06/29 03:06:04;;;;;;;;;;;17.70;99.90;;;;;;5008635;28;20353;-77
2022/06/29 03:08:29;;;;;;;;;;;17.80;99.90;;;;;;5008797;28;20389;-77
2022/06/29 03:10:54;;;;;;;;;;;17.70;99.90;;;;;;5009729;28;20733;-77
2022/06/29 03:13:20;;;;;;;;;;;17.80;99.90;;;;;;5007524;28;19909;-77
2022/06/29 03:15:45;;;;;;;;;;;17.70;99.90;;;;;;5004205;28;19916;-77
2022/06/29 03:18:11;;;;;;;;;;;17.70;99.90;;;;;;5009645;28;19909;-77
2022/06/29 03:20:36;;;;;;;;;;;17.60;99.90;;;;;;5005557;28;19917;-77
2022/06/29 03:23:01;;;;;;;;;;;17.40;99.90;;;;;;5005339;28;19917;-77
2022/06/29 03:25:27;;;;;;;;;;;17.50;99.90;;;;;;5004657;28;19931;-76
2022/06/29 03:27:52;;;;;;;;;;;17.50;99.90;;;;;;5008984;28;20378;-77
2022/06/29 03:30:18;;;;;;;;;;;17.50;99.90;;;;;;5009377;28;19972;-78
2022/06/29 03:32:44;;;;;;;;;;;17.60;99.90;;;;;;5006817;28;19940;-77
2022/06/29 03:35:09;;;;;;;;;;;17.60;99.90;;;;;;5004205;28;19914;-76
2022/06/29 03:37:35;;;;;;;;;;;17.70;99.90;;;;;;5007854;28;20295;-78
2022/06/29 03:40:00;;;;;;;;;;;17.70;99.90;;;;;;5008774;28;19917;-77
2022/06/29 03:42:26;;;;;;;;;;;17.60;99.90;;;;;;5006938;28;19909;-77
2022/06/29 03:44:51;;;;;;;;;;;17.60;99.90;;;;;;5007835;28;20024;-77
2022/06/29 03:47:17;;;;;;;;;;;17.80;99.90;;;;;;5009160;28;19916;-77
2022/06/29 03:49:42;;;;;;;;;;;17.80;99.90;;;;;;5008194;28;19914;-77
2022/06/29 03:52:08;;;;;;;;;;;17.80;99.90;;;;;;5007430;28;19910;-77
2022/06/29 03:54:33;;;;;;;;;;;17.80;99.90;;;;;;5004260;28;20392;-77
2022/06/29 03:56:58;;;;;;;;;;;17.70;99.90;;;;;;4990305;28;19917;-77
2022/06/29 03:59:24;;;;;;;;;;;17.40;99.90;;;;;;4991437;28;19909;-77
2022/06/29 04:01:50;;;;;;;;;;;17.50;99.90;;;;;;4989662;28;19914;-77
2022/06/29 04:04:15;;;;;;;;;;;17.70;99.90;;;;;;5001729;28;19921;-78
2022/06/29 04:06:41;;;;;;;;;;;17.70;99.90;;;;;;4987238;28;20016;-77
2022/06/29 04:09:06;;;;;;;;;;;17.90;99.90;;;;;;4997150;28;19918;-77
2022/06/29 04:11:52;;;;;;;;;;;17.60;99.90;;;;;;4988461;28;20296;-77
2022/06/29 04:14:18;;;;;;;;;;;17.60;99.90;;;;;;4991504;28;19985;-77
2022/06/29 04:16:44;;;;;;;;;;;17.80;99.90;;;;;;4991987;28;20285;-77
2022/06/29 04:19:10;;;;;;;;;;;17.80;99.90;;;;;;4993416;28;20415;-77
2022/06/29 04:21:35;;;;;;;;;;;17.80;99.90;;;;;;4995898;28;19994;-77
2022/06/29 04:24:00;;;;;;;;;;;17.80;99.90;;;;;;4990328;28;20395;-77
2022/06/29 04:26:26;;;;;;;;;;;17.90;99.90;;;;;;4989124;28;19917;-77
2022/06/29 04:28:51;;;;;;;;;;;18.00;99.90;;;;;;4994761;28;20008;-77
2022/06/29 04:31:17;;;;;;;;;;;18.00;99.90;;;;;;4983537;28;20004;-77
2022/06/29 04:33:42;;;;;;;;;;;18.00;99.90;;;;;;4985624;28;19917;-78
2022/06/29 04:36:08;;;;;;;;;;;17.90;99.90;;;;;;4995488;28;20047;-76
2022/06/29 04:38:33;;;;;;;;;;;17.80;99.90;;;;;;4993909;28;19957;-78
2022/06/29 04:40:59;;;;;;;;;;;17.80;99.90;;;;;;4978350;28;19913;-76
2022/06/29 04:43:26;;;;;;;;;;;17.90;99.90;;;;;;4993904;28;19916;-78
2022/06/29 04:48:38;;;;;;;;;;;18.00;99.90;;;;;;4990323;28;20431;-77
2022/06/29 04:51:06;;;;;;;;;;;18.10;99.90;;;;;;4996703;28;19941;-77
2022/06/29 04:53:32;;;;;;;;;;;18.20;99.90;;;;;;4992617;28;20407;-77
2022/06/29 04:55:57;;;;;;;;;;;18.40;99.90;;;;;;5011713;28;20037;-77
2022/06/29 04:58:23;;;;;;;;;;;18.40;99.90;;;;;;5008734;28;19909;-77
2022/06/29 05:00:48;;;;;;;;;;;18.40;99.90;;;;;;5007808;28;20282;-77
2022/06/29 05:03:14;;;;;;;;;;;18.50;99.90;;;;;;5007791;28;19909;-77
2022/06/29 05:05:39;;;;;;;;;;;18.70;99.90;;;;;;5009944;28;19936;-77
2022/06/29 05:08:05;;;;;;;;;;;18.70;99.90;;;;;;5008753;28;19909;-76
2022/06/29 05:10:30;;;;;;;;;;;18.50;99.90;;;;;;5007850;28;20018;-77
2022/06/29 05:12:56;;;;;;;;;;;18.60;99.90;;;;;;5010792;28;19909;-77
2022/06/29 05:15:21;;;;;;;;;;;18.70;99.90;;;;;;5009447;28;19933;-77
2022/06/29 05:17:47;;;;;;;;;;;18.70;99.90;;;;;;5010110;28;19914;-76
2022/06/29 05:20:13;;;;;;;;;;;18.80;99.90;;;;;;5010939;28;19937;-78
2022/06/29 05:22:39;;;;;;;;;;;18.80;99.90;;;;;;5013245;28;19940;-77
2022/06/29 05:25:04;;;;;;;;;;;18.80;99.90;;;;;;5011249;28;19910;-78
2022/06/29 05:27:30;;;;;;;;;;;18.80;99.90;;;;;;5009755;28;20284;-77
2022/06/29 05:29:55;;;;;;;;;;;18.80;99.90;;;;;;5006549;28;19909;-76
2022/06/29 05:32:21;;;;;;;;;;;18.80;99.90;;;;;;5009214;28;20344;-78
2022/06/29 05:34:46;;;;;;;;;;;18.90;99.90;;;;;;5003309;28;20028;-78
2022/06/29 05:37:12;;;;;;;;;;;19.00;99.90;;;;;;5009988;28;19913;-80
2022/06/29 05:39:37;;;;;;;;;;;19.10;99.90;;;;;;5011502;28;19935;-81
2022/06/29 05:42:03;;;;;;;;;;;19.20;99.90;;;;;;5010522;28;20371;-79
2022/06/29 05:44:28;;;;;;;;;;;19.30;99.90;;;;;;5014524;28;19988;-81
2022/06/29 05:46:54;;;;;;;;;;;19.40;99.90;;;;;;5011517;28;19963;-79
2022/06/29 05:49:19;;;;;;;;;;;19.30;99.90;;;;;;5009004;28;19979;-80
2022/06/29 05:51:44;;;;;;;;;;;19.30;99.90;;;;;;5009185;28;19967;-79
2022/06/29 05:54:10;;;;;;;;;;;19.30;99.90;;;;;;5011171;28;20110;-80
2022/06/29 05:56:35;;;;;;;;;;;19.40;99.90;;;;;;5008752;28;20382;-78
2022/06/29 05:59:01;;;;;;;;;;;19.40;99.90;;;;;;5009351;28;20321;-79
2022/06/29 06:01:26;;;;;;;;;;;19.60;99.90;;;;;;5016551;28;19908;-80
2022/06/29 06:03:51;;;;;;;;;;;19.60;99.90;;;;;;5016799;28;20365;-87
2022/06/29 06:06:17;;;;;;;;;;;19.70;99.90;;;;;;5008929;28;19964;-80
2022/06/29 06:08:42;;;;;;;;;;;19.70;99.90;;;;;;5017777;28;20360;-78
2022/06/29 06:11:08;;;;;;;;;;;19.80;99.90;;;;;;5006153;28;19917;-78
2022/06/29 06:13:33;;;;;;;;;;;19.80;99.90;;;;;;5016674;28;19917;-80
2022/06/29 06:15:59;;;;;;;;;;;19.90;99.90;;;;;;5011097;28;19905;-80
2022/06/29 06:18:25;;;;;;;;;;;20.00;99.90;;;;;;5010839;28;19916;-84
2022/06/29 06:20:50;;;;;;;;;;;20.10;99.90;;;;;;5007374;28;19948;-78
2022/06/29 06:23:16;;;;;;;;;;;20.10;99.90;;;;;;5001807;28;20620;-77
2022/06/29 06:25:41;;;;;;;;;;;20.10;99.90;;;;;;5005698;28;19917;-77
2022/06/29 06:28:07;;;;;;;;;;;20.30;99.90;;;;;;5007015;28;21693;-77
2022/06/29 06:30:50;;;;;;;;;;;20.40;99.90;;;;;;5005628;28;19920;-78
2022/06/29 06:33:16;;;;;;;;;;;20.70;99.90;;;;;;5006482;28;19905;-76
2022/06/29 06:35:41;;;;;;;;;;;20.70;99.90;;;;;;5007110;28;19940;-76
2022/06/29 06:38:07;;;;;;;;;;;20.80;99.90;;;;;;5004147;28;19910;-78
2022/06/29 06:43:16;;;;;;;;;;;20.90;99.90;;;;;;5005855;28;19959;-76
2022/06/29 06:45:42;;;;;;;;;;;21.10;99.70;;;;;;5011366;28;19941;-76
2022/06/29 06:48:07;;;;;;;;;;;21.30;98.80;;;;;;5007119;28;19980;-78
2022/06/29 06:50:33;;;;;;;;;;;21.30;98.20;;;;;;5004115;28;19999;-77
2022/06/29 06:52:58;;;;;;;;;;;21.30;96.60;;;;;;5003623;28;20368;-76
2022/06/29 06:55:24;;;;;;;;;;;21.20;94.80;;;;;;5005776;28;19925;-76
2022/06/29 06:57:49;;;;;;;;;;;21.10;94.60;;;;;;5010886;28;19971;-77
2022/06/29 07:00:14;;;;;;;;;;;21.10;93.20;;;;;;5009443;28;19964;-76
2022/06/29 07:02:40;;;;;;;;;;;21.20;93.70;;;;;;5007700;28;19913;-76
2022/06/29 07:05:06;;;;;;;;;;;21.40;93.30;;;;;;5010259;28;19963;-78
2022/06/29 07:07:31;;;;;;;;;;;21.50;91.50;;;;;;5007725;28;19929;-82
2022/06/29 07:09:57;;;;;;;;;;;21.70;91.80;;;;;;5011088;28;19909;-81
2022/06/29 07:12:22;;;;;;;;;;;21.90;86.70;;;;;;5009129;28;19913;-81
2022/06/29 07:14:47;;;;;;;;;;;21.90;86.50;;;;;;5011370;28;19932;-85
2022/06/29 07:17:13;;;;;;;;;;;22.10;89.60;;;;;;5007001;28;19909;-85
2022/06/29 07:19:38;;;;;;;;;;;22.20;88.50;;;;;;5008523;28;19909;-85
2022/06/29 07:24:50;;;;;;;;;;;22.30;84.50;;;;;;5003504;28;19920;-83
2022/06/29 07:27:15;;;;;;;;;;;22.50;84.00;;;;;;5011031;28;19929;-83
2022/06/29 07:29:41;;;;;;;;;;;22.60;80.10;;;;;;5009432;28;19916;-83
2022/06/29 07:32:07;;;;;;;;;;;22.40;80.90;;;;;;5019711;28;20012;-83
2022/06/29 07:34:32;;;;;;;;;;;22.40;85.10;;;;;;5001890;28;19928;-83
2022/06/29 07:36:58;;;;;;;;;;;22.50;83.90;;;;;;5019871;28;20003;-83
2022/06/29 07:39:23;;;;;;;;;;;22.60;83.30;;;;;;4998403;28;19976;-83
2022/06/29 07:41:48;;;;;;;;;;;22.80;86.30;;;;;;5010354;28;20334;-84
2022/06/29 07:44:14;;;;;;;;;;;23.00;85.90;;;;;;5009976;28;20000;-85
2022/06/29 07:46:39;;;;;;;;;;;22.90;84.00;;;;;;5014299;28;19964;-85
2022/06/29 07:49:05;;;;;;;;;;;23.10;80.10;;;;;;5011065;28;19916;-85
2022/06/29 07:51:30;;;;;;;;;;;23.00;78.40;;;;;;5010137;28;19948;-84
2022/06/29 07:53:56;;;;;;;;;;;23.10;79.90;;;;;;5006646;28;19917;-82
2022/06/29 07:56:21;;;;;;;;;;;23.40;77.70;;;;;;5010075;28;19909;-81
2022/06/29 07:58:46;;;;;;;;;;;23.40;76.80;;;;;;5009221;28;19913;-82
2022/06/29 08:01:12;;;;;;;;;;;23.50;75.50;;;;;;5008658;28;19947;-79
2022/06/29 08:03:37;;;;;;;;;;;23.60;75.00;;;;;;5007587;28;19945;-78
2022/06/29 08:06:05;;;;;;;;;;;23.60;77.10;;;;;;5009634;28;19909;-79
2022/06/29 08:08:31;;;;;;;;;;;23.80;75.00;;;;;;5008050;28;19913;-79
2022/06/29 08:10:56;;;;;;;;;;;23.70;74.00;;;;;;5009569;28;19963;-79
2022/06/29 08:13:21;;;;;;;;;;;23.80;75.20;;;;;;5009065;28;20000;-79
2022/06/29 08:15:47;;;;;;;;;;;24.00;75.10;;;;;;5008286;28;20454;-81
2022/06/29 08:18:13;;;;;;;;;;;24.20;72.90;;;;;;5007564;28;19910;-77
2022/06/29 08:20:38;;;;;;;;;;;24.30;71.70;;;;;;5006227;28;19916;-78
2022/06/29 08:23:04;;;;;;;;;;;24.30;75.70;;;;;;5008830;28;19917;-75
2022/06/29 08:25:31;;;;;;;;;;;24.30;72.40;;;;;;5013458;28;19905;-76
2022/06/29 08:27:56;;;;;;;;;;;24.50;71.10;;;;;;5012239;28;19967;-81
2022/06/29 08:30:22;;;;;;;;;;;24.80;68.00;;;;;;5013949;28;20379;-80
2022/06/29 08:32:47;;;;;;;;;;;24.90;67.50;;;;;;5012078;28;20462;-80
2022/06/29 08:35:14;;;;;;;;;;;25.00;66.70;;;;;;5012853;28;19971;-80
2022/06/29 08:37:39;;;;;;;;;;;25.00;66.30;;;;;;5012880;28;19956;-79
2022/06/29 08:40:06;;;;;;;;;;;25.30;66.10;;;;;;5007157;28;19917;-80
2022/06/29 08:42:32;;;;;;;;;;;25.20;62.90;;;;;;5010222;28;19916;-78
2022/06/29 08:44:58;;;;;;;;;;;25.10;64.30;;;;;;5013319;28;20364;-79
2022/06/29 08:47:23;;;;;;;;;;;25.10;64.60;;;;;;5012750;28;19971;-80
2022/06/29 08:49:48;;;;;;;;;;;24.90;62.30;;;;;;5007187;28;19916;-79
2022/06/29 08:52:14;;;;;;;;;;;24.90;65.70;;;;;;5011966;28;19905;-78
2022/06/29 08:54:44;;;;;;;;;;;24.90;63.20;;;;;;5012234;28;19956;-78
2022/06/29 08:57:09;;;;;;;;;;;24.80;61.30;;;;;;5011101;28;19932;-80
2022/06/29 08:59:35;;;;;;;;;;;24.80;60.90;;;;;;5013118;28;20347;-79
2022/06/29 09:02:01;;;;;;;;;;;24.90;62.90;;;;;;5012937;28;19916;-79
2022/06/29 09:04:27;;;;;;;;;;;25.00;62.30;;;;;;5012925;28;19909;-79
2022/06/29 09:06:54;;;;;;;;;;;24.90;60.50;;;;;;5013643;28;20280;-80
2022/06/29 09:09:19;;;;;;;;;;;24.80;59.60;;;;;;5012509;28;20268;-79
2022/06/29 09:11:46;;;;;;;;;;;25.00;61.40;;;;;;5010686;28;19909;-77
2022/06/29 09:14:13;;;;;;;;;;;25.20;60.90;;;;;;5011317;28;19969;-79
2022/06/29 09:16:51;;;;;;;;;;;25.50;59.90;;;;;;5016164;28;19906;-80
2022/06/29 09:19:16;;;;;;;;;;;;;;;;;;5028553;28;19933;-85
2022/06/29 09:21:52;;;;;;;;;;;25.40;56.70;;;;;;5015238;28;19909;-83
2022/06/29 09:24:22;;;;;;;;;;;25.80;55.10;;;;;;5013381;28;20000;-86
2022/06/29 09:26:52;;;;;;;;;;;25.90;55.90;;;;;;5013697;28;20886;-84
2022/06/29 09:29:21;;;;;;;;;;;25.80;56.70;;;;;;5012278;28;20594;-86
2022/06/29 09:32:01;;;;;;;;;;;26.10;57.60;;;;;;5013925;28;19909;-83
2022/06/29 09:34:46;;;;;;;;;;;25.90;57.70;;;;;;5013302;28;19925;-84
2022/06/29 09:37:12;;;;;;;;;;;26.10;58.10;;;;;;5015807;28;19905;-84
2022/06/29 09:39:39;;;;;;;;;;;26.10;57.10;;;;;;5013805;28;19910;-83
2022/06/29 09:42:05;;;;;;;;;;;26.20;55.70;;;;;;5013343;28;20361;-82
2022/06/29 09:44:31;;;;;;;;;;;26.10;58.80;;;;;;5015129;28;20014;-83
2022/06/29 09:46:57;;;;;;;;;;;26.30;56.40;;;;;;5011860;28;19913;-83
2022/06/29 09:49:25;;;;;;;;;;;26.30;56.70;;;;;;5012553;28;19941;-82
2022/06/29 09:51:53;;;;;;;;;;;26.30;56.00;;;;;;4998643;28;19914;-83
2022/06/29 09:54:19;;;;;;;;;;;26.40;56.50;;;;;;5012840;28;20443;-83
2022/06/29 09:56:46;;;;;;;;;;;26.30;60.10;;;;;;5011183;28;19949;-82
2022/06/29 09:59:13;;;;;;;;;;;26.30;60.90;;;;;;5011830;28;20327;-83
2022/06/29 10:04:25;;;;;;;;;;;26.00;55.20;;;;;;5010022;28;19936;-78
2022/06/29 10:06:51;;;;;;;;;;;25.80;54.20;;;;;;5008990;28;19910;-84
2022/06/29 10:09:17;;;;;;;;;;;25.50;56.20;;;;;;5008447;28;19913;-82
2022/06/29 10:14:43;;;;;;;;;;;25.50;57.60;;;;;;4968420;28;19913;-83
2022/06/29 10:17:27;;;;;;;;;;;25.70;58.50;;;;;;5013020;28;19916;-83
2022/06/29 10:20:01;;;;;;;;;;;25.40;56.40;;;;;;5010448;28;19917;-85
2022/06/29 10:22:29;;;;;;;;;;;25.60;56.80;;;;;;5013910;28;19916;-82
2022/06/29 10:25:01;;;;;;;;;;;25.70;58.50;;;;;;5012644;28;19914;-83
2022/06/29 10:27:26;;;;;;;;;;;25.50;56.40;;;;;;5010690;28;19910;-83
2022/06/29 10:30:12;;;;;;;;;;;25.90;57.80;;;;;;5011159;28;20331;-84
2022/06/29 10:32:38;;;;;;;;;;;25.90;54.60;;;;;;5010310;28;19913;-83
2022/06/29 10:35:07;;;;;;;;;;;25.60;55.60;;;;;;5011906;28;19913;-84
2022/06/29 10:37:32;;;;;;;;;;;25.70;57.40;;;;;;5012897;28;20295;-84
2022/06/29 10:40:00;;;;;;;;;;;25.60;55.30;;;;;;5010526;28;19918;-84
2022/06/29 10:45:16;;;;;;;;;;;25.40;56.90;;;;;;5010427;28;20830;-84
2022/06/29 10:47:53;;;;;;;;;;;25.00;55.20;;;;;;5011984;28;19905;-83
2022/06/29 10:50:20;;;;;;;;;;;24.90;56.60;;;;;;5003263;28;19948;-84
2022/06/29 10:52:46;;;;;;;;;;;25.40;58.20;;;;;;5004640;28;19924;-84
2022/06/29 10:55:12;;;;;;;;;;;25.60;57.40;;;;;;5007119;28;19925;-85
2022/06/29 10:57:38;;;;;;;;;;;25.80;56.70;;;;;;5005674;28;19918;-84
2022/06/29 11:00:08;;;;;;;;;;;26.00;56.80;;;;;;5008960;28;19948;-84
2022/06/29 11:02:34;;;;;;;;;;;26.20;57.20;;;;;;5007170;28;19967;-82
2022/06/29 11:04:59;;;;;;;;;;;26.30;55.00;;;;;;5009665;28;20341;-84
2022/06/29 11:12:54;;;;;;;;;;;26.30;55.90;;;;;;5000263;28;20027;-82
2022/06/29 11:15:42;;;;;;;;;;;26.30;56.10;;;;;;4995699;28;20408;-79
2022/06/29 11:18:08;;;;;;;;;;;26.30;52.60;;;;;;5008824;28;20043;-77
2022/06/29 11:20:34;;;;;;;;;;;25.90;53.20;;;;;;5000344;28;20032;-79
2022/06/29 11:22:59;;;;;;;;;;;25.60;56.30;;;;;;5002573;28;20027;-79
2022/06/29 11:25:26;;;;;;;;;;;25.20;55.90;;;;;;5007012;28;19917;-78
2022/06/29 11:27:51;;;;;;;;;;;25.10;57.10;;;;;;5007793;28;19910;-80
2022/06/29 11:30:21;;;;;;;;;;;24.70;55.70;;;;;;5007142;28;19933;-79
2022/06/29 11:32:47;;;;;;;;;;;24.90;57.70;;;;;;5007303;28;20120;-79
2022/06/29 11:35:15;;;;;;;;;;;25.50;55.90;;;;;;5007307;28;19925;-78
2022/06/29 11:37:44;;;;;;;;;;;25.90;54.40;;;;;;5002537;28;19916;-80
2022/06/29 11:40:10;;;;;;;;;;;26.40;55.30;;;;;;5005949;28;19929;-79
2022/06/29 11:45:20;;;;;;;;;;;25.90;53.60;;;;;;5003176;28;19963;-76
2022/06/29 11:47:52;;;;;;;;;;;25.80;54.40;;;;;;5004859;28;19913;-78
2022/06/29 11:50:18;;;;;;;;;;;25.90;54.80;;;;;;5000235;28;20060;-80
2022/06/29 11:52:50;;;;;;;;;;;26.30;54.20;;;;;;5007141;28;20435;-80
2022/06/29 11:55:15;;;;;;;;;;;26.40;52.50;;;;;;5005480;28;19921;-80
2022/06/29 11:57:41;;;;;;;;;;;27.10;53.90;;;;;;5000723;28;19914;-80
2022/06/29 12:00:08;;;;;;;;;;;27.90;55.20;;;;;;5008106;28;20664;-82
2022/06/29 12:02:36;;;;;;;;;;;28.20;52.70;;;;;;5008513;28;19961;-80
2022/06/29 12:05:02;;;;;;;;;;;28.40;54.50;;;;;;5004593;28;19948;-80
2022/06/29 12:07:29;;;;;;;;;;;28.80;53.10;;;;;;5007292;28;19916;-82
2022/06/29 12:09:55;;;;;;;;;;;28.80;52.10;;;;;;5007860;28;19909;-78
2022/06/29 12:12:21;;;;;;;;;;;28.60;50.30;;;;;;5001595;28;19916;-79
2022/06/29 12:14:46;;;;;;;;;;;28.00;48.70;;;;;;4997890;28;20004;-78
2022/06/29 12:17:15;;;;;;;;;;;27.80;49.10;;;;;;5004884;28;20644;-80
2022/06/29 12:19:44;;;;;;;;;;;27.70;51.00;;;;;;5008025;28;19916;-79
2022/06/29 12:22:09;;;;;;;;;;;28.10;51.50;;;;;;4996547;28;19910;-79
2022/06/29 12:24:35;;;;;;;;;;;28.60;51.90;;;;;;5005888;28;19955;-78
2022/06/29 12:27:02;;;;;;;;;;;28.90;50.40;;;;;;5007080;28;19917;-80
2022/06/29 12:29:27;;;;;;;;;;;28.60;48.80;;;;;;5006291;28;19909;-79
2022/06/29 12:31:53;;;;;;;;;;;28.30;48.80;;;;;;5004094;28;19914;-79
2022/06/29 12:34:18;;;;;;;;;;;28.10;50.60;;;;;;5009057;28;19909;-79
2022/06/29 12:36:44;;;;;;;;;;;28.30;50.40;;;;;;4999281;28;19909;-78
2022/06/29 12:39:09;;;;;;;;;;;28.70;49.60;;;;;;5002011;28;19935;-79
2022/06/29 12:41:35;;;;;;;;;;;28.60;51.90;;;;;;5009462;28;20320;-77
2022/06/29 12:44:04;;;;;;;;;;;28.00;50.20;;;;;;5004824;28;20192;-78
2022/06/29 12:46:30;;;;;;;;;;;27.60;51.70;;;;;;5005374;28;20319;-79
2022/06/29 12:48:56;;;;;;;;;;;27.10;52.70;;;;;;5008124;28;19913;-82
2022/06/29 12:51:21;;;;;;;;;;;27.30;53.60;;;;;;5005570;28;20088;-78
2022/06/29 12:53:47;;;;;;;;;;;27.70;51.30;;;;;;5005845;28;20865;-78
2022/06/29 12:56:13;;;;;;;;;;;28.10;52.30;;;;;;5001987;28;20354;-79
2022/06/29 12:58:38;;;;;;;;;;;28.30;51.90;;;;;;4999612;28;19909;-76
2022/06/29 13:01:04;;;;;;;;;;;27.70;49.30;;;;;;5003020;28;20054;-80
2022/06/29 13:03:29;;;;;;;;;;;27.10;51.00;;;;;;5009859;28;20008;-78
2022/06/29 13:05:54;;;;;;;;;;;28.10;50.20;;;;;;5005561;28;20024;-77
2022/06/29 13:08:20;;;;;;;;;;;30.40;46.50;;;;;;5004218;28;19963;-76
2022/06/29 13:10:46;;;;;;;;;;;30.50;44.60;;;;;;5008172;28;20344;-78
2022/06/29 13:13:12;;;;;;;;;;;30.50;44.30;;;;;;5006419;28;19917;-79
2022/06/29 13:15:37;;;;;;;;;;;30.70;43.60;;;;;;5008000;28;19909;-84
2022/06/29 13:18:02;;;;;;;;;;;30.70;44.90;;;;;;5009469;28;19913;-81
2022/06/29 13:20:28;;;;;;;;;;;30.50;43.20;;;;;;5002487;28;19909;-79
2022/06/29 13:22:54;;;;;;;;;;;30.40;43.10;;;;;;5008193;28;19972;-79
2022/06/29 13:25:20;;;;;;;;;;;29.90;44.50;;;;;;5004358;28;20314;-82
2022/06/29 13:27:45;;;;;;;;;;;29.40;45.10;;;;;;5004298;28;19918;-82
2022/06/29 13:30:11;;;;;;;;;;;29.70;45.80;;;;;;5008058;28;19913;-78
2022/06/29 13:32:36;;;;;;;;;;;29.80;46.20;;;;;;5005882;28;20356;-86
2022/06/29 13:35:01;;;;;;;;;;;29.30;46.40;;;;;;5011231;28;19917;-82
2022/06/29 13:37:27;;;;;;;;;;;29.30;48.00;;;;;;5006551;28;20020;-81
2022/06/29 13:39:52;;;;;;;;;;;28.80;46.20;;;;;;5008499;28;19921;-78
2022/06/29 13:42:18;;;;;;;;;;;28.30;47.00;;;;;;5010834;28;19932;-80
2022/06/29 13:44:43;;;;;;;;;;;28.20;49.60;;;;;;5007216;28;21698;-80
2022/06/29 13:47:08;;;;;;;;;;;28.20;49.20;;;;;;5008832;28;20584;-81
2022/06/29 13:49:35;;;;;;;;;;;28.50;48.10;;;;;;5011260;28;19937;-83
2022/06/29 13:52:01;;;;;;;;;;;28.50;48.70;;;;;;5005778;28;20269;-79
2022/06/29 13:54:27;;;;;;;;;;;28.70;49.80;;;;;;5009723;28;20441;-81
2022/06/29 13:56:52;;;;;;;;;;;29.00;48.00;;;;;;5011152;28;19913;-86
2022/06/29 13:59:18;;;;;;;;;;;29.00;50.20;;;;;;5008503;28;19932;-79
2022/06/29 14:01:43;;;;;;;;;;;28.90;48.00;;;;;;5011191;28;19918;-83
2022/06/29 14:04:09;;;;;;;;;;;29.50;48.10;;;;;;5009367;28;20287;-79
2022/06/29 14:06:34;;;;;;;;;;;31.70;44.40;;;;;;5004064;28;20000;-85
2022/06/29 14:09:00;;;;;;;;;;;33.30;42.70;;;;;;5003388;28;19913;-77
2022/06/29 14:11:25;;;;;;;;;;;34.90;38.20;;;;;;5004474;28;19909;-81
2022/06/29 14:13:51;;;;;;;;;;;33.80;40.00;;;;;;5006293;28;19910;-77
2022/06/29 14:16:16;;;;;;;;;;;32.10;40.50;;;;;;5000340;28;19909;-77
2022/06/29 14:18:43;;;;;;;;;;;33.10;42.20;;;;;;4997201;28;20048;-81
2022/06/29 14:21:09;;;;;;;;;;;33.40;37.60;;;;;;5001830;28;19918;-77
2022/06/29 14:23:34;;;;;;;;;;;32.40;40.40;;;;;;5003854;28;19916;-78
2022/06/29 14:26:00;;;;;;;;;;;31.20;41.60;;;;;;5004630;28;19916;-78
2022/06/29 14:28:25;;;;;;;;;;;29.80;43.70;;;;;;5001645;28;19913;-78
2022/06/29 14:30:54;;;;;;;;;;;29.90;43.20;;;;;;5007609;28;19956;-79
2022/06/29 14:33:19;;;;;;;;;;;30.00;43.80;;;;;;5004093;28;19910;-79
2022/06/29 14:35:45;;;;;;;;;;;30.40;44.40;;;;;;4994797;28;19927;-78
2022/06/29 14:38:10;;;;;;;;;;;29.20;43.70;;;;;;4997098;28;19914;-78
2022/06/29 14:40:36;;;;;;;;;;;29.50;44.30;;;;;;5002070;28;19963;-78
2022/06/29 14:43:02;;;;;;;;;;;29.20;44.00;;;;;;5002962;28;20401;-79